sensor_id;sensor_type;location;lat;lon;timestamp;P1;durP1;ratioP1;P2;durP2;ratioP2
33246;SDS011;19606;50.108;19.804;2022-11-20T00:00:51;186.65;;;76.00;;
33246;SDS011;19606;50.108;19.804;2022-11-20T00:03:17;189.02;;;70.53;;
33246;SDS011;19606;50.108;19.804;2022-11-20T00:05:43;187.68;;;74.25;;
33246;SDS011;19606;50.108;19.804;2022-11-20T00:08:08;203.82;;;73.90;;
33246;SDS011;19606;50.108;19.804;2022-11-20T00:10:37;175.63;;;70.00;;
33246;SDS011;19606;50.108;19.804;2022-11-20T00:13:06;185.07;;;74.85;;
33246;SDS011;19606;50.108;19.804;2022-11-20T00:15:32;189.75;;;75.43;;
33246;SDS011;19606;50.108;19.804;2022-11-20T00:17:58;201.88;;;76.18;;
33246;SDS011;19606;50.108;19.804;2022-11-20T00:20:24;201.95;;;76.32;;
33246;SDS011;19606;50.108;19.804;2022-11-20T00:22:50;199.05;;;77.32;;
33246;SDS011;19606;50.108;19.804;2022-11-20T00:25:16;204.27;;;80.85;;
33246;SDS011;19606;50.108;19.804;2022-11-20T00:27:41;197.07;;;79.47;;
33246;SDS011;19606;50.108;19.804;2022-11-20T00:30:08;204.30;;;80.03;;
33246;SDS011;19606;50.108;19.804;2022-11-20T00:32:34;190.15;;;76.05;;
33246;SDS011;19606;50.108;19.804;2022-11-20T00:35:00;201.10;;;81.32;;
33246;SDS011;19606;50.108;19.804;2022-11-20T00:37:26;207.88;;;83.00;;
33246;SDS011;19606;50.108;19.804;2022-11-20T00:39:51;202.13;;;81.35;;
33246;SDS011;19606;50.108;19.804;2022-11-20T00:42:17;212.70;;;81.05;;
33246;SDS011;19606;50.108;19.804;2022-11-20T00:44:42;204.02;;;77.82;;
33246;SDS011;19606;50.108;19.804;2022-11-20T00:47:08;169.38;;;66.25;;
33246;SDS011;19606;50.108;19.804;2022-11-20T00:49:34;172.20;;;65.15;;
33246;SDS011;19606;50.108;19.804;2022-11-20T00:51:59;168.80;;;63.42;;
33246;SDS011;19606;50.108;19.804;2022-11-20T00:54:25;182.63;;;67.80;;
33246;SDS011;19606;50.108;19.804;2022-11-20T00:56:52;177.90;;;68.47;;
33246;SDS011;19606;50.108;19.804;2022-11-20T00:59:18;167.85;;;67.55;;
33246;SDS011;19606;50.108;19.804;2022-11-20T01:01:44;168.43;;;66.35;;
33246;SDS011;19606;50.108;19.804;2022-11-20T01:04:10;165.68;;;64.68;;
33246;SDS011;19606;50.108;19.804;2022-11-20T01:06:37;175.45;;;65.47;;
33246;SDS011;19606;50.108;19.804;2022-11-20T01:09:10;164.23;;;66.47;;
33246;SDS011;19606;50.108;19.804;2022-11-20T01:11:39;174.77;;;67.93;;
33246;SDS011;19606;50.108;19.804;2022-11-20T01:14:09;176.82;;;70.57;;
33246;SDS011;19606;50.108;19.804;2022-11-20T01:16:40;186.45;;;77.95;;
33246;SDS011;19606;50.108;19.804;2022-11-20T01:19:10;203.73;;;78.38;;
33246;SDS011;19606;50.108;19.804;2022-11-20T01:21:39;206.30;;;80.07;;
33246;SDS011;19606;50.108;19.804;2022-11-20T01:24:06;227.38;;;83.90;;
33246;SDS011;19606;50.108;19.804;2022-11-20T01:26:34;191.77;;;74.72;;
33246;SDS011;19606;50.108;19.804;2022-11-20T01:29:02;200.13;;;80.28;;
33246;SDS011;19606;50.108;19.804;2022-11-20T01:31:29;194.00;;;78.55;;
33246;SDS011;19606;50.108;19.804;2022-11-20T01:34:00;197.00;;;81.55;;
33246;SDS011;19606;50.108;19.804;2022-11-20T01:36:29;203.40;;;81.20;;
33246;SDS011;19606;50.108;19.804;2022-11-20T01:38:57;232.10;;;85.78;;
33246;SDS011;19606;50.108;19.804;2022-11-20T01:41:25;222.05;;;88.47;;
33246;SDS011;19606;50.108;19.804;2022-11-20T01:44:12;215.45;;;86.18;;
33246;SDS011;19606;50.108;19.804;2022-11-20T01:46:40;217.02;;;84.15;;
33246;SDS011;19606;50.108;19.804;2022-11-20T01:49:16;230.45;;;90.35;;
33246;SDS011;19606;50.108;19.804;2022-11-20T01:52:15;241.43;;;91.05;;
33246;SDS011;19606;50.108;19.804;2022-11-20T01:54:44;252.75;;;102.88;;
33246;SDS011;19606;50.108;19.804;2022-11-20T01:57:15;225.80;;;87.70;;
33246;SDS011;19606;50.108;19.804;2022-11-20T01:59:44;263.88;;;106.43;;
33246;SDS011;19606;50.108;19.804;2022-11-20T02:02:17;225.55;;;90.05;;
33246;SDS011;19606;50.108;19.804;2022-11-20T02:04:43;239.02;;;91.22;;
33246;SDS011;19606;50.108;19.804;2022-11-20T02:07:09;224.60;;;90.07;;
33246;SDS011;19606;50.108;19.804;2022-11-20T02:09:36;220.55;;;90.70;;
33246;SDS011;19606;50.108;19.804;2022-11-20T02:12:01;227.02;;;86.72;;
33246;SDS011;19606;50.108;19.804;2022-11-20T02:14:28;205.80;;;78.75;;
33246;SDS011;19606;50.108;19.804;2022-11-20T02:16:54;194.82;;;74.97;;
33246;SDS011;19606;50.108;19.804;2022-11-20T02:19:27;188.90;;;79.35;;
33246;SDS011;19606;50.108;19.804;2022-11-20T02:24:41;186.77;;;75.85;;
33246;SDS011;19606;50.108;19.804;2022-11-20T02:27:10;187.38;;;76.28;;
33246;SDS011;19606;50.108;19.804;2022-11-20T02:29:44;195.55;;;78.30;;
33246;SDS011;19606;50.108;19.804;2022-11-20T02:32:26;209.10;;;85.87;;
33246;SDS011;19606;50.108;19.804;2022-11-20T02:34:56;186.18;;;75.53;;
33246;SDS011;19606;50.108;19.804;2022-11-20T02:37:21;187.88;;;72.88;;
33246;SDS011;19606;50.108;19.804;2022-11-20T02:39:49;176.88;;;69.55;;
33246;SDS011;19606;50.108;19.804;2022-11-20T02:42:16;184.00;;;73.18;;
33246;SDS011;19606;50.108;19.804;2022-11-20T02:44:42;193.10;;;76.70;;
33246;SDS011;19606;50.108;19.804;2022-11-20T02:47:07;188.77;;;76.13;;
33246;SDS011;19606;50.108;19.804;2022-11-20T02:49:33;211.52;;;82.05;;
33246;SDS011;19606;50.108;19.804;2022-11-20T02:52:00;247.63;;;98.90;;
33246;SDS011;19606;50.108;19.804;2022-11-20T02:54:26;247.18;;;97.20;;
33246;SDS011;19606;50.108;19.804;2022-11-20T02:56:54;247.02;;;94.53;;
33246;SDS011;19606;50.108;19.804;2022-11-20T02:59:20;226.60;;;91.38;;
33246;SDS011;19606;50.108;19.804;2022-11-20T03:01:45;233.82;;;91.30;;
33246;SDS011;19606;50.108;19.804;2022-11-20T03:04:11;247.40;;;93.85;;
33246;SDS011;19606;50.108;19.804;2022-11-20T03:06:37;213.60;;;86.97;;
33246;SDS011;19606;50.108;19.804;2022-11-20T03:09:02;224.90;;;88.20;;
33246;SDS011;19606;50.108;19.804;2022-11-20T03:11:28;219.68;;;89.20;;
33246;SDS011;19606;50.108;19.804;2022-11-20T03:13:54;227.02;;;89.95;;
33246;SDS011;19606;50.108;19.804;2022-11-20T03:16:21;240.50;;;91.85;;
33246;SDS011;19606;50.108;19.804;2022-11-20T03:18:47;237.93;;;92.95;;
33246;SDS011;19606;50.108;19.804;2022-11-20T03:21:13;257.05;;;102.45;;
33246;SDS011;19606;50.108;19.804;2022-11-20T03:23:40;238.93;;;99.07;;
33246;SDS011;19606;50.108;19.804;2022-11-20T03:28:52;257.88;;;102.82;;
33246;SDS011;19606;50.108;19.804;2022-11-20T03:31:24;276.17;;;110.35;;
33246;SDS011;19606;50.108;19.804;2022-11-20T03:33:51;240.63;;;96.97;;
33246;SDS011;19606;50.108;19.804;2022-11-20T03:36:17;252.75;;;98.50;;
33246;SDS011;19606;50.108;19.804;2022-11-20T03:38:44;228.90;;;91.93;;
33246;SDS011;19606;50.108;19.804;2022-11-20T03:41:12;236.23;;;89.85;;
33246;SDS011;19606;50.108;19.804;2022-11-20T03:43:39;239.90;;;95.00;;
33246;SDS011;19606;50.108;19.804;2022-11-20T03:46:05;238.27;;;92.85;;
33246;SDS011;19606;50.108;19.804;2022-11-20T03:48:31;218.18;;;86.13;;
33246;SDS011;19606;50.108;19.804;2022-11-20T03:54:02;197.30;;;82.13;;
33246;SDS011;19606;50.108;19.804;2022-11-20T03:56:31;222.65;;;88.53;;
33246;SDS011;19606;50.108;19.804;2022-11-20T03:58:58;226.02;;;90.95;;
33246;SDS011;19606;50.108;19.804;2022-11-20T04:01:25;236.27;;;89.28;;
33246;SDS011;19606;50.108;19.804;2022-11-20T04:03:55;174.73;;;74.97;;
33246;SDS011;19606;50.108;19.804;2022-11-20T04:06:28;246.93;;;92.32;;
33246;SDS011;19606;50.108;19.804;2022-11-20T04:08:58;236.50;;;95.32;;
33246;SDS011;19606;50.108;19.804;2022-11-20T04:11:27;229.90;;;94.93;;
33246;SDS011;19606;50.108;19.804;2022-11-20T04:13:56;222.40;;;93.30;;
33246;SDS011;19606;50.108;19.804;2022-11-20T04:16:27;250.75;;;101.72;;
33246;SDS011;19606;50.108;19.804;2022-11-20T04:18:55;247.50;;;98.75;;
33246;SDS011;19606;50.108;19.804;2022-11-20T04:21:24;237.75;;;94.65;;
33246;SDS011;19606;50.108;19.804;2022-11-20T04:23:51;243.57;;;94.03;;
33246;SDS011;19606;50.108;19.804;2022-11-20T04:26:18;238.73;;;91.95;;
33246;SDS011;19606;50.108;19.804;2022-11-20T04:28:44;242.50;;;94.55;;
33246;SDS011;19606;50.108;19.804;2022-11-20T04:31:11;263.48;;;102.68;;
33246;SDS011;19606;50.108;19.804;2022-11-20T04:33:38;270.60;;;99.78;;
33246;SDS011;19606;50.108;19.804;2022-11-20T04:36:06;264.00;;;105.07;;
33246;SDS011;19606;50.108;19.804;2022-11-20T04:38:36;258.55;;;102.97;;
33246;SDS011;19606;50.108;19.804;2022-11-20T04:41:03;262.38;;;104.20;;
33246;SDS011;19606;50.108;19.804;2022-11-20T04:43:31;249.05;;;100.55;;
33246;SDS011;19606;50.108;19.804;2022-11-20T04:45:57;260.75;;;101.00;;
33246;SDS011;19606;50.108;19.804;2022-11-20T04:48:24;242.85;;;100.07;;
33246;SDS011;19606;50.108;19.804;2022-11-20T04:50:51;227.90;;;92.63;;
33246;SDS011;19606;50.108;19.804;2022-11-20T04:53:17;249.57;;;97.05;;
33246;SDS011;19606;50.108;19.804;2022-11-20T04:55:43;243.98;;;96.85;;
33246;SDS011;19606;50.108;19.804;2022-11-20T04:58:09;252.25;;;99.90;;
33246;SDS011;19606;50.108;19.804;2022-11-20T05:00:35;252.45;;;103.55;;
33246;SDS011;19606;50.108;19.804;2022-11-20T05:03:00;247.10;;;101.95;;
33246;SDS011;19606;50.108;19.804;2022-11-20T05:05:26;237.63;;;97.32;;
33246;SDS011;19606;50.108;19.804;2022-11-20T05:07:52;254.20;;;102.40;;
33246;SDS011;19606;50.108;19.804;2022-11-20T05:10:17;252.73;;;104.10;;
33246;SDS011;19606;50.108;19.804;2022-11-20T05:12:43;249.93;;;103.18;;
33246;SDS011;19606;50.108;19.804;2022-11-20T05:15:09;252.93;;;102.80;;
33246;SDS011;19606;50.108;19.804;2022-11-20T05:17:35;265.83;;;107.70;;
33246;SDS011;19606;50.108;19.804;2022-11-20T05:20:00;304.83;;;122.07;;
33246;SDS011;19606;50.108;19.804;2022-11-20T05:22:26;375.85;;;140.48;;
33246;SDS011;19606;50.108;19.804;2022-11-20T05:24:51;302.80;;;120.32;;
33246;SDS011;19606;50.108;19.804;2022-11-20T05:27:17;272.60;;;106.55;;
33246;SDS011;19606;50.108;19.804;2022-11-20T05:29:43;276.30;;;108.80;;
33246;SDS011;19606;50.108;19.804;2022-11-20T05:32:08;270.55;;;106.65;;
33246;SDS011;19606;50.108;19.804;2022-11-20T05:34:34;276.27;;;111.72;;
33246;SDS011;19606;50.108;19.804;2022-11-20T05:37:01;265.73;;;108.85;;
33246;SDS011;19606;50.108;19.804;2022-11-20T05:39:27;270.10;;;107.82;;
33246;SDS011;19606;50.108;19.804;2022-11-20T05:41:53;264.33;;;103.93;;
33246;SDS011;19606;50.108;19.804;2022-11-20T05:44:38;263.65;;;105.25;;
33246;SDS011;19606;50.108;19.804;2022-11-20T05:47:04;263.48;;;106.93;;
33246;SDS011;19606;50.108;19.804;2022-11-20T05:49:31;257.70;;;104.40;;
33246;SDS011;19606;50.108;19.804;2022-11-20T05:51:57;242.90;;;97.32;;
33246;SDS011;19606;50.108;19.804;2022-11-20T05:54:22;256.52;;;103.30;;
33246;SDS011;19606;50.108;19.804;2022-11-20T05:56:48;258.70;;;103.95;;
33246;SDS011;19606;50.108;19.804;2022-11-20T05:59:14;273.38;;;108.35;;
33246;SDS011;19606;50.108;19.804;2022-11-20T06:01:40;271.98;;;109.28;;
33246;SDS011;19606;50.108;19.804;2022-11-20T06:04:05;277.10;;;113.53;;
33246;SDS011;19606;50.108;19.804;2022-11-20T06:06:31;275.80;;;110.07;;
33246;SDS011;19606;50.108;19.804;2022-11-20T06:08:57;268.67;;;109.25;;
33246;SDS011;19606;50.108;19.804;2022-11-20T06:11:24;277.90;;;112.75;;
33246;SDS011;19606;50.108;19.804;2022-11-20T06:13:49;240.85;;;96.20;;
33246;SDS011;19606;50.108;19.804;2022-11-20T06:16:16;231.10;;;97.00;;
33246;SDS011;19606;50.108;19.804;2022-11-20T06:18:44;242.77;;;97.50;;
33246;SDS011;19606;50.108;19.804;2022-11-20T06:21:11;242.40;;;89.93;;
33246;SDS011;19606;50.108;19.804;2022-11-20T06:23:39;223.88;;;89.55;;
33246;SDS011;19606;50.108;19.804;2022-11-20T06:26:06;223.60;;;89.22;;
33246;SDS011;19606;50.108;19.804;2022-11-20T06:28:41;183.38;;;70.28;;
33246;SDS011;19606;50.108;19.804;2022-11-20T06:31:07;193.45;;;77.15;;
33246;SDS011;19606;50.108;19.804;2022-11-20T06:33:35;190.02;;;73.10;;
33246;SDS011;19606;50.108;19.804;2022-11-20T06:36:01;162.20;;;64.78;;
33246;SDS011;19606;50.108;19.804;2022-11-20T06:38:28;158.55;;;65.90;;
33246;SDS011;19606;50.108;19.804;2022-11-20T06:40:54;224.82;;;90.75;;
33246;SDS011;19606;50.108;19.804;2022-11-20T06:43:21;228.05;;;92.50;;
33246;SDS011;19606;50.108;19.804;2022-11-20T06:45:53;232.88;;;95.70;;
33246;SDS011;19606;50.108;19.804;2022-11-20T06:48:20;234.35;;;92.57;;
33246;SDS011;19606;50.108;19.804;2022-11-20T06:50:46;250.57;;;96.97;;
33246;SDS011;19606;50.108;19.804;2022-11-20T06:53:11;228.25;;;94.20;;
33246;SDS011;19606;50.108;19.804;2022-11-20T06:55:41;256.63;;;98.75;;
33246;SDS011;19606;50.108;19.804;2022-11-20T06:58:08;260.63;;;94.85;;
33246;SDS011;19606;50.108;19.804;2022-11-20T07:00:34;245.98;;;94.55;;
33246;SDS011;19606;50.108;19.804;2022-11-20T07:03:03;246.95;;;94.13;;
33246;SDS011;19606;50.108;19.804;2022-11-20T07:05:29;228.35;;;87.03;;
33246;SDS011;19606;50.108;19.804;2022-11-20T07:07:55;235.50;;;90.03;;
33246;SDS011;19606;50.108;19.804;2022-11-20T07:10:21;260.27;;;90.97;;
33246;SDS011;19606;50.108;19.804;2022-11-20T07:12:51;236.68;;;88.85;;
33246;SDS011;19606;50.108;19.804;2022-11-20T07:15:18;228.63;;;89.20;;
33246;SDS011;19606;50.108;19.804;2022-11-20T07:17:45;212.52;;;90.32;;
33246;SDS011;19606;50.108;19.804;2022-11-20T07:20:12;228.68;;;87.97;;
33246;SDS011;19606;50.108;19.804;2022-11-20T07:22:38;224.63;;;84.20;;
33246;SDS011;19606;50.108;19.804;2022-11-20T07:25:04;223.13;;;86.60;;
33246;SDS011;19606;50.108;19.804;2022-11-20T07:27:30;224.20;;;86.30;;
33246;SDS011;19606;50.108;19.804;2022-11-20T07:29:56;229.02;;;88.72;;
33246;SDS011;19606;50.108;19.804;2022-11-20T07:32:22;220.43;;;87.80;;
33246;SDS011;19606;50.108;19.804;2022-11-20T07:34:48;235.25;;;86.55;;
33246;SDS011;19606;50.108;19.804;2022-11-20T07:37:14;240.60;;;86.93;;
33246;SDS011;19606;50.108;19.804;2022-11-20T07:39:41;214.00;;;84.03;;
33246;SDS011;19606;50.108;19.804;2022-11-20T07:42:07;213.40;;;81.30;;
33246;SDS011;19606;50.108;19.804;2022-11-20T07:44:33;196.63;;;78.00;;
33246;SDS011;19606;50.108;19.804;2022-11-20T07:46:59;191.80;;;76.63;;
33246;SDS011;19606;50.108;19.804;2022-11-20T07:49:25;189.57;;;74.07;;
33246;SDS011;19606;50.108;19.804;2022-11-20T07:51:51;172.85;;;69.95;;
33246;SDS011;19606;50.108;19.804;2022-11-20T07:54:18;164.00;;;67.72;;
33246;SDS011;19606;50.108;19.804;2022-11-20T07:56:45;174.45;;;69.57;;
33246;SDS011;19606;50.108;19.804;2022-11-20T07:59:11;167.18;;;70.53;;
33246;SDS011;19606;50.108;19.804;2022-11-20T08:01:37;167.48;;;69.78;;
33246;SDS011;19606;50.108;19.804;2022-11-20T08:04:06;185.50;;;72.15;;
33246;SDS011;19606;50.108;19.804;2022-11-20T08:06:32;162.25;;;70.90;;
33246;SDS011;19606;50.108;19.804;2022-11-20T08:08:58;157.73;;;64.88;;
33246;SDS011;19606;50.108;19.804;2022-11-20T08:11:24;147.95;;;63.10;;
33246;SDS011;19606;50.108;19.804;2022-11-20T08:14:08;151.60;;;60.65;;
33246;SDS011;19606;50.108;19.804;2022-11-20T08:16:37;134.55;;;56.92;;
33246;SDS011;19606;50.108;19.804;2022-11-20T08:19:10;139.75;;;61.00;;
33246;SDS011;19606;50.108;19.804;2022-11-20T08:21:37;135.50;;;59.22;;
33246;SDS011;19606;50.108;19.804;2022-11-20T08:24:03;125.22;;;54.67;;
33246;SDS011;19606;50.108;19.804;2022-11-20T08:26:29;123.72;;;54.58;;
33246;SDS011;19606;50.108;19.804;2022-11-20T08:28:55;124.28;;;55.35;;
33246;SDS011;19606;50.108;19.804;2022-11-20T08:31:21;126.78;;;56.35;;
33246;SDS011;19606;50.108;19.804;2022-11-20T08:33:51;126.80;;;55.70;;
33246;SDS011;19606;50.108;19.804;2022-11-20T08:36:17;121.50;;;55.83;;
33246;SDS011;19606;50.108;19.804;2022-11-20T08:38:50;117.10;;;51.35;;
33246;SDS011;19606;50.108;19.804;2022-11-20T08:41:17;112.63;;;54.78;;
33246;SDS011;19606;50.108;19.804;2022-11-20T08:44:10;118.05;;;55.67;;
33246;SDS011;19606;50.108;19.804;2022-11-20T08:46:38;125.80;;;57.90;;
33246;SDS011;19606;50.108;19.804;2022-11-20T08:51:33;119.65;;;56.85;;
33246;SDS011;19606;50.108;19.804;2022-11-20T08:53:59;119.20;;;56.78;;
33246;SDS011;19606;50.108;19.804;2022-11-20T08:56:25;128.77;;;57.45;;
33246;SDS011;19606;50.108;19.804;2022-11-20T08:58:50;135.25;;;64.25;;
33246;SDS011;19606;50.108;19.804;2022-11-20T09:01:17;136.63;;;60.20;;
33246;SDS011;19606;50.108;19.804;2022-11-20T09:03:43;133.10;;;62.08;;
33246;SDS011;19606;50.108;19.804;2022-11-20T09:06:09;187.25;;;89.50;;
33246;SDS011;19606;50.108;19.804;2022-11-20T09:08:35;139.75;;;63.78;;
33246;SDS011;19606;50.108;19.804;2022-11-20T09:11:01;115.55;;;58.53;;
33246;SDS011;19606;50.108;19.804;2022-11-20T09:13:28;118.00;;;58.42;;
33246;SDS011;19606;50.108;19.804;2022-11-20T09:15:58;141.95;;;68.28;;
33246;SDS011;19606;50.108;19.804;2022-11-20T09:18:34;140.93;;;68.28;;
33246;SDS011;19606;50.108;19.804;2022-11-20T09:21:04;141.43;;;67.57;;
33246;SDS011;19606;50.108;19.804;2022-11-20T09:23:33;144.55;;;65.90;;
33246;SDS011;19606;50.108;19.804;2022-11-20T09:26:03;128.68;;;63.80;;
33246;SDS011;19606;50.108;19.804;2022-11-20T09:28:30;147.02;;;69.35;;
33246;SDS011;19606;50.108;19.804;2022-11-20T09:30:56;145.02;;;65.68;;
33246;SDS011;19606;50.108;19.804;2022-11-20T09:33:22;135.65;;;63.10;;
33246;SDS011;19606;50.108;19.804;2022-11-20T09:35:47;142.80;;;62.47;;
33246;SDS011;19606;50.108;19.804;2022-11-20T09:38:13;143.63;;;64.28;;
33246;SDS011;19606;50.108;19.804;2022-11-20T09:46:27;137.77;;;63.25;;
33246;SDS011;19606;50.108;19.804;2022-11-20T09:54:01;140.38;;;63.65;;
33246;SDS011;19606;50.108;19.804;2022-11-20T09:56:41;154.68;;;67.03;;
33246;SDS011;19606;50.108;19.804;2022-11-20T10:00:11;141.98;;;66.47;;
33246;SDS011;19606;50.108;19.804;2022-11-20T10:04:57;140.85;;;62.83;;
33246;SDS011;19606;50.108;19.804;2022-11-20T10:07:35;145.95;;;62.00;;
33246;SDS011;19606;50.108;19.804;2022-11-20T10:10:16;145.57;;;62.63;;
33246;SDS011;19606;50.108;19.804;2022-11-20T10:12:57;152.52;;;67.90;;
33246;SDS011;19606;50.108;19.804;2022-11-20T10:15:41;150.63;;;66.95;;
33246;SDS011;19606;50.108;19.804;2022-11-20T10:23:50;151.93;;;69.13;;
33246;SDS011;19606;50.108;19.804;2022-11-20T10:29:29;154.05;;;65.85;;
33246;SDS011;19606;50.108;19.804;2022-11-20T10:32:07;148.63;;;65.55;;
33246;SDS011;19606;50.108;19.804;2022-11-20T10:34:57;153.93;;;64.93;;
33246;SDS011;19606;50.108;19.804;2022-11-20T10:37:44;151.38;;;62.97;;
33246;SDS011;19606;50.108;19.804;2022-11-20T10:43:02;142.30;;;59.72;;
33246;SDS011;19606;50.108;19.804;2022-11-20T10:48:27;136.13;;;60.97;;
33246;SDS011;19606;50.108;19.804;2022-11-20T10:53:38;145.35;;;62.15;;
33246;SDS011;19606;50.108;19.804;2022-11-20T11:02:31;145.77;;;59.05;;
33246;SDS011;19606;50.108;19.804;2022-11-20T11:04:59;146.13;;;60.35;;
33246;SDS011;19606;50.108;19.804;2022-11-20T11:07:54;144.52;;;61.95;;
33246;SDS011;19606;50.108;19.804;2022-11-20T11:10:23;142.05;;;61.70;;
33246;SDS011;19606;50.108;19.804;2022-11-20T11:12:54;150.25;;;66.18;;
33246;SDS011;19606;50.108;19.804;2022-11-20T11:15:25;150.05;;;65.55;;
33246;SDS011;19606;50.108;19.804;2022-11-20T11:18:03;143.27;;;64.43;;
33246;SDS011;19606;50.108;19.804;2022-11-20T11:20:29;131.48;;;59.92;;
33246;SDS011;19606;50.108;19.804;2022-11-20T11:22:58;136.23;;;59.92;;
33246;SDS011;19606;50.108;19.804;2022-11-20T11:27:50;135.55;;;59.30;;
33246;SDS011;19606;50.108;19.804;2022-11-20T11:30:18;145.45;;;64.65;;
33246;SDS011;19606;50.108;19.804;2022-11-20T11:32:45;135.55;;;58.83;;
33246;SDS011;19606;50.108;19.804;2022-11-20T11:35:45;143.10;;;60.05;;
33246;SDS011;19606;50.108;19.804;2022-11-20T11:38:14;128.48;;;59.33;;
33246;SDS011;19606;50.108;19.804;2022-11-20T11:40:43;133.95;;;60.28;;
33246;SDS011;19606;50.108;19.804;2022-11-20T11:43:22;132.85;;;61.42;;
33246;SDS011;19606;50.108;19.804;2022-11-20T11:46:30;122.35;;;57.05;;
33246;SDS011;19606;50.108;19.804;2022-11-20T11:49:14;124.95;;;56.58;;
33246;SDS011;19606;50.108;19.804;2022-11-20T11:56:52;130.20;;;58.05;;
33246;SDS011;19606;50.108;19.804;2022-11-20T12:02:15;133.13;;;58.78;;
33246;SDS011;19606;50.108;19.804;2022-11-20T12:05:09;136.57;;;57.33;;
33246;SDS011;19606;50.108;19.804;2022-11-20T12:07:47;125.60;;;56.00;;
33246;SDS011;19606;50.108;19.804;2022-11-20T12:10:20;123.55;;;57.50;;
33246;SDS011;19606;50.108;19.804;2022-11-20T12:12:54;125.53;;;57.53;;
33246;SDS011;19606;50.108;19.804;2022-11-20T12:15:43;127.68;;;58.03;;
33246;SDS011;19606;50.108;19.804;2022-11-20T12:18:14;131.45;;;55.58;;
33246;SDS011;19606;50.108;19.804;2022-11-20T12:20:44;128.10;;;57.10;;
33246;SDS011;19606;50.108;19.804;2022-11-20T12:23:18;137.35;;;59.13;;
33246;SDS011;19606;50.108;19.804;2022-11-20T12:26:01;133.55;;;59.22;;
33246;SDS011;19606;50.108;19.804;2022-11-20T12:31:42;137.55;;;59.08;;
33246;SDS011;19606;50.108;19.804;2022-11-20T12:39:42;121.25;;;53.95;;
33246;SDS011;19606;50.108;19.804;2022-11-20T12:59:52;105.03;;;48.25;;
33246;SDS011;19606;50.108;19.804;2022-11-20T13:08:03;115.82;;;52.17;;
33246;SDS011;19606;50.108;19.804;2022-11-20T13:10:49;123.75;;;56.53;;
33246;SDS011;19606;50.108;19.804;2022-11-20T13:16:10;117.60;;;52.13;;
33246;SDS011;19606;50.108;19.804;2022-11-20T13:18:45;134.23;;;57.10;;
33246;SDS011;19606;50.108;19.804;2022-11-20T13:21:17;133.38;;;54.30;;
33246;SDS011;19606;50.108;19.804;2022-11-20T13:24:06;152.88;;;69.72;;
33246;SDS011;19606;50.108;19.804;2022-11-20T13:26:32;137.95;;;56.85;;
33246;SDS011;19606;50.108;19.804;2022-11-20T13:29:01;123.15;;;53.50;;
33246;SDS011;19606;50.108;19.804;2022-11-20T13:31:36;105.60;;;46.28;;
33246;SDS011;19606;50.108;19.804;2022-11-20T13:34:07;127.18;;;58.55;;
33246;SDS011;19606;50.108;19.804;2022-11-20T13:36:47;113.95;;;51.45;;
33246;SDS011;19606;50.108;19.804;2022-11-20T13:39:27;121.97;;;53.88;;
33246;SDS011;19606;50.108;19.804;2022-11-20T13:42:19;154.32;;;64.18;;
33246;SDS011;19606;50.108;19.804;2022-11-20T13:44:53;135.75;;;63.83;;
33246;SDS011;19606;50.108;19.804;2022-11-20T13:47:23;137.02;;;55.88;;
33246;SDS011;19606;50.108;19.804;2022-11-20T13:49:51;127.20;;;55.17;;
33246;SDS011;19606;50.108;19.804;2022-11-20T13:55:23;151.82;;;62.58;;
33246;SDS011;19606;50.108;19.804;2022-11-20T14:00:21;118.50;;;50.90;;
33246;SDS011;19606;50.108;19.804;2022-11-20T14:05:38;142.07;;;55.63;;
33246;SDS011;19606;50.108;19.804;2022-11-20T14:08:14;127.53;;;53.30;;
33246;SDS011;19606;50.108;19.804;2022-11-20T14:10:48;137.65;;;57.55;;
33246;SDS011;19606;50.108;19.804;2022-11-20T14:13:20;151.05;;;64.88;;
33246;SDS011;19606;50.108;19.804;2022-11-20T14:15:46;144.35;;;62.88;;
33246;SDS011;19606;50.108;19.804;2022-11-20T14:18:21;134.98;;;58.83;;
33246;SDS011;19606;50.108;19.804;2022-11-20T14:20:47;120.10;;;51.50;;
33246;SDS011;19606;50.108;19.804;2022-11-20T14:23:22;156.00;;;62.05;;
33246;SDS011;19606;50.108;19.804;2022-11-20T14:25:50;195.20;;;74.00;;
33246;SDS011;19606;50.108;19.804;2022-11-20T14:28:33;207.68;;;77.82;;
33246;SDS011;19606;50.108;19.804;2022-11-20T14:30:59;171.00;;;64.00;;
33246;SDS011;19606;50.108;19.804;2022-11-20T14:33:25;188.23;;;73.05;;
33246;SDS011;19606;50.108;19.804;2022-11-20T14:35:53;165.30;;;65.00;;
33246;SDS011;19606;50.108;19.804;2022-11-20T14:38:21;150.32;;;59.22;;
33246;SDS011;19606;50.108;19.804;2022-11-20T14:40:50;176.52;;;69.65;;
33246;SDS011;19606;50.108;19.804;2022-11-20T14:43:23;170.50;;;66.43;;
33246;SDS011;19606;50.108;19.804;2022-11-20T14:45:58;149.70;;;58.88;;
33246;SDS011;19606;50.108;19.804;2022-11-20T14:48:48;203.95;;;85.35;;
33246;SDS011;19606;50.108;19.804;2022-11-20T14:51:23;145.32;;;62.30;;
33246;SDS011;19606;50.108;19.804;2022-11-20T14:53:55;162.68;;;64.50;;
33246;SDS011;19606;50.108;19.804;2022-11-20T14:56:21;145.57;;;57.97;;
33246;SDS011;19606;50.108;19.804;2022-11-20T14:58:55;147.15;;;59.33;;
33246;SDS011;19606;50.108;19.804;2022-11-20T15:01:29;155.13;;;60.17;;
33246;SDS011;19606;50.108;19.804;2022-11-20T15:04:00;143.23;;;58.72;;
33246;SDS011;19606;50.108;19.804;2022-11-20T15:06:35;149.27;;;59.33;;
33246;SDS011;19606;50.108;19.804;2022-11-20T15:09:04;155.90;;;63.38;;
33246;SDS011;19606;50.108;19.804;2022-11-20T15:11:38;158.63;;;63.53;;
33246;SDS011;19606;50.108;19.804;2022-11-20T15:14:05;157.27;;;65.10;;
33246;SDS011;19606;50.108;19.804;2022-11-20T15:16:31;164.77;;;63.72;;
33246;SDS011;19606;50.108;19.804;2022-11-20T15:18:57;178.75;;;72.40;;
33246;SDS011;19606;50.108;19.804;2022-11-20T15:21:24;194.82;;;78.50;;
33246;SDS011;19606;50.108;19.804;2022-11-20T15:23:50;178.55;;;74.25;;
33246;SDS011;19606;50.108;19.804;2022-11-20T15:26:23;163.32;;;66.47;;
33246;SDS011;19606;50.108;19.804;2022-11-20T15:28:51;193.45;;;78.50;;
33246;SDS011;19606;50.108;19.804;2022-11-20T15:31:19;259.05;;;106.90;;
33246;SDS011;19606;50.108;19.804;2022-11-20T15:33:46;223.75;;;91.35;;
33246;SDS011;19606;50.108;19.804;2022-11-20T15:36:12;199.98;;;81.32;;
33246;SDS011;19606;50.108;19.804;2022-11-20T15:38:38;193.80;;;80.45;;
33246;SDS011;19606;50.108;19.804;2022-11-20T15:41:04;216.52;;;91.15;;
33246;SDS011;19606;50.108;19.804;2022-11-20T15:43:30;217.93;;;83.53;;
33246;SDS011;19606;50.108;19.804;2022-11-20T15:46:03;208.98;;;80.53;;
33246;SDS011;19606;50.108;19.804;2022-11-20T15:48:37;189.38;;;75.63;;
33246;SDS011;19606;50.108;19.804;2022-11-20T15:53:36;198.43;;;76.20;;